Latest Weather Observations for Cummins Airport

IDS60801

Issued at 10:01 am CST Saturday 7 May 2016 (issued every 30 minutes, with the page automatically refreshed every 10 minutes)

About weather observations | Map of weather stations | Latest weather observations for SA | Other Formats
Station Details ID: 018217 Name: CUMMINS AERO Lat: -34.25 Lon: 135.71 Height: 60.11 m
Data from the previous 72 hours. | See also: Recent months at Cummins Airport
Date/Time
CST
Temp
°C
App
Temp
°C
Dew
Point
Rel
Hum
%
Delta-T
°C
Wind Press
QNH
hPa
Press
MSL
hPa
Rain
since 9 am
mm
Dir
 
Spd
km/h
Gust
km/h
Spd
kts
Gust
kts
07/10:00am 19.9 17.8 15.1 74 2.8 ENE 20 32 11 17 1010.4 1010.4 0.0
07/09:30am 19.0 16.1 15.1 78 2.3 E 24 32 13 17 1010.5 1010.5 0.0
07/09:00am 17.9 14.7 15.3 85 1.5 E 26 39 14 21 1010.5 1010.5 0.0
07/08:30am 17.0 13.8 15.3 90 1.0 E 26 33 14 18 1010.6 1010.6 0.0
07/08:00am 16.5 13.6 15.2 92 0.8 ESE 24 32 13 17 1010.7 1010.7 0.0
07/07:30am 16.1 13.9 15.0 93 0.6 ESE 20 28 11 15 1010.4 1010.4 0.0
07/07:00am 16.1 13.8 14.6 91 0.9 ESE 20 28 11 15 1010.1 1010.1 0.0
07/06:30am 16.1 12.8 14.1 88 1.1 ESE 24 30 13 16 1010.3 1010.3 0.0
07/06:00am 16.1 13.9 14.3 89 1.0 ESE 19 32 10 17 1010.0 1010.0 0.0
07/05:30am 15.9 13.5 13.7 87 1.2 SE 19 28 10 15 1010.3 1010.3 0.0
07/05:00am 15.7 14.2 13.2 85 1.4 SE 13 22 7 12 1010.4 1010.4 0.0
07/04:30am 15.8 14.1 13.6 87 1.2 SE 15 22 8 12 1010.6 1010.6 0.0
07/04:00am 15.8 13.6 13.3 85 1.4 SE 17 20 9 11 1010.6 1010.6 0.0
07/03:30am 15.9 14.6 13.7 87 1.2 SE 13 17 7 9 1011.1 1011.0 0.0
07/03:00am 15.9 14.0 14.1 89 1.0 ESE 17 20 9 11 1011.2 1011.1 0.0
07/02:30am 15.9 14.8 14.3 90 0.9 ESE 13 19 7 10 1011.2 1011.1 0.0
07/02:00am 16.1 14.7 14.5 90 0.9 ESE 15 19 8 10 1011.5 1011.4 0.0
07/01:30am 16.1 14.0 14.8 92 0.7 ESE 19 24 10 13 1011.4 1011.3 0.0
07/01:00am 16.2 15.0 15.1 93 0.6 ESE 15 20 8 11 1011.8 1011.7 0.0
07/12:30am 16.1 14.5 15.0 93 0.6 ESE 17 22 9 12 1011.8 1011.7 0.0
07/12:00am 15.6 14.6 14.5 93 0.6 ESE 13 17 7 9 1012.3 1012.2 0.0
 
Date/Time
CST
Temp
°C
App
Temp
°C
Dew
Point
Rel
Hum
%
Delta-T
°C
Wind Press
QNH
hPa
Press
MSL
hPa
Rain
since 9 am
mm
Dir
 
Spd
km/h
Gust
km/h
Spd
kts
Gust
kts
06/11:30pm 14.6 14.0 13.5 93 0.6 SE 9 13 5 7 1013.0 1012.9 0.0
06/11:00pm 14.6 13.6 13.3 92 0.7 ESE 11 15 6 8 1013.0 1012.9 0.0
06/10:30pm 14.8 13.1 13.5 92 0.7 ESE 15 19 8 10 1013.2 1013.1 0.0
06/10:00pm 14.7 13.4 13.6 93 0.6 ESE 13 15 7 8 1013.7 1013.6 0.0
06/09:30pm 14.7 13.0 13.6 93 0.6 ESE 15 19 8 10 1013.7 1013.6 0.0
06/09:00pm 13.9 13.2 13.1 95 0.4 SE 9 13 5 7 1013.7 1013.6 0.0
06/08:30pm 14.5 13.4 13.0 91 0.8 SE 11 15 6 8 1013.9 1013.8 0.0
06/08:00pm 15.0 13.6 13.4 90 0.9 ESE 13 17 7 9 1013.6 1013.5 0.0
06/07:30pm 14.8 14.0 13.0 89 1.0 ESE 9 11 5 6 1013.6 1013.5 0.0
06/07:00pm 15.6 14.5 13.1 85 1.4 ESE 11 13 6 7 1013.6 1013.5 0.0
06/06:30pm 16.4 15.0 13.3 82 1.7 E 13 17 7 9 1013.2 1013.1 0.0
06/06:00pm 17.4 15.5 12.9 75 2.5 ESE 15 20 8 11 1012.8 1012.7 0.0
06/05:30pm 18.6 16.7 13.0 70 3.2 ESE 15 19 8 10 1012.7 1012.6 0.0
06/05:00pm 20.0 17.6 12.7 63 4.1 S 17 22 9 12 1012.7 1012.6 0.0
06/04:30pm 22.0 19.9 11.1 50 6.0 W 13 19 7 10 1012.5 1012.4 0.0
06/04:00pm 22.7 21.4 11.4 49 6.3 W 9 15 5 8 1012.5 1012.4 0.0
06/03:30pm 22.8 21.7 10.6 46 6.7 NW 7 13 4 7 1012.6 1012.5 0.0
06/03:00pm 23.0 22.1 10.8 46 6.8 WNW 6 11 3 6 1012.8 1012.7 0.0
06/02:30pm 22.4 21.2 11.5 50 6.1 SSW 9 11 5 6 1012.9 1012.8 0.0
06/02:00pm 22.2 21.0 11.6 51 5.9 S 9 15 5 8 1013.1 1013.0 0.0
06/01:30pm 22.0 21.4 11.7 52 5.8 SSW 6 9 3 5 1013.4 1013.3 0.0
06/01:00pm 21.5 20.9 11.8 54 5.4 SW 6 11 3 6 1013.9 1013.8 0.0
06/12:30pm 20.9 20.2 12.1 57 4.9 NE 7 13 4 7 1014.0 1013.9 0.0
06/12:00pm 20.9 20.8 12.1 57 4.9 WNW 4 11 2 6 1014.4 1014.3 0.0
06/11:30am 19.6 18.9 12.1 62 4.2 SE 7 11 4 6 1014.9 1014.8 0.0
06/11:00am 19.3 18.2 12.1 63 4.0 SSW 9 13 5 7 1015.3 1015.2 0.0
06/10:30am 18.8 17.8 12.3 66 3.6 SSE 9 15 5 8 1015.5 1015.4 0.0
06/10:00am 18.1 17.5 13.4 74 2.7 ESE 9 13 5 7 1015.7 1015.6 0.0
06/09:30am 16.7 18.2 15.6 93 0.6 E 2 11 1 6 1015.7 1015.6 0.0
06/09:00am 14.4 15.8 14.4 100 0.0 CALM 0 0 0 0 1015.7 1015.6 0.0
06/08:30am 13.4 14.5 13.4 100 0.0 CALM 0 2 0 1 1015.6 1015.5 0.0
06/08:00am 12.2 11.7 12.2 100 0.0 NNE 6 7 3 4 1015.3 1015.2 0.0
06/07:30am 11.2 9.9 11.2 100 0.0 N 9 11 5 6 1014.9 1014.8 0.0
06/07:00am 10.2 10.3 10.2 100 0.0 CALM 0 0 0 0 1014.6 1014.5 0.0
06/06:30am 10.0 10.1 10.0 100 0.0 CALM 0 0 0 0 1014.5 1014.4 0.0
06/06:00am 10.4 9.8 10.4 100 0.0 SSW 4 9 2 5 1014.4 1014.3 0.0
06/05:30am 10.6 10.8 10.6 100 0.0 CALM 0 0 0 0 1014.0 1013.9 0.0
06/05:00am 10.7 10.9 10.7 100 0.0 CALM 0 0 0 0 1013.8 1013.7 0.0
06/04:30am 10.7 10.9 10.7 100 0.0 CALM 0 0 0 0 1013.6 1013.5 0.0
06/04:00am 11.4 11.8 11.4 100 0.0 CALM 0 6 0 3 1013.6 1013.5 0.0
06/03:30am 10.9 10.8 10.9 100 0.0 NNE 2 6 1 3 1013.6 1013.5 0.0
06/03:00am 11.1 9.8 11.1 100 0.0 NNE 9 11 5 6 1013.8 1013.7 0.0
06/02:30am 9.9 8.6 9.8 99 0.1 NNE 7 9 4 5 1013.5 1013.4 0.0
06/02:00am 9.7 8.5 9.4 98 0.1 NE 6 7 3 4 1013.4 1013.3 0.0
06/01:30am 9.9 8.1 9.6 98 0.2 NE 9 9 5 5 1013.4 1013.3 0.0
06/01:00am 10.4 9.1 10.1 98 0.2 NNE 7 9 4 5 1013.1 1013.0 0.0
06/12:30am 10.0 9.8 9.2 95 0.4 CALM 0 0 0 0 1012.8 1012.7 0.0
06/12:00am 10.9 11.0 10.0 94 0.5 CALM 0 0 0 0 1012.9 1012.8 0.0
 
Date/Time
CST
Temp
°C
App
Temp
°C
Dew
Point
Rel
Hum
%
Delta-T
°C
Wind Press
QNH
hPa
Press
MSL
hPa
Rain
since 9 am
mm
Dir
 
Spd
km/h
Gust
km/h
Spd
kts
Gust
kts
05/11:30pm 11.3 11.3 9.7 90 0.8 CALM 0 0 0 0 1012.9 1012.8 0.0
05/11:00pm 11.8 11.9 10.2 90 0.8 CALM 0 0 0 0 1012.9 1012.8 0.0
05/10:30pm 12.1 12.2 10.3 89 0.9 CALM 0 0 0 0 1012.7 1012.6 0.0
05/10:00pm 12.5 12.7 10.6 88 1.0 CALM 0 0 0 0 1012.7 1012.6 0.0
05/09:30pm 12.4 11.3 10.1 86 1.2 SE 6 7 3 4 1012.5 1012.4 0.0
05/09:00pm 12.1 10.8 9.3 83 1.4 E 6 7 3 4 1012.0 1011.9 0.0
05/08:30pm 12.9 11.5 9.0 77 2.0 NNE 6 7 3 4 1012.0 1011.9 0.0
05/08:00pm 15.8 14.2 10.3 70 2.9 WNW 9 11 5 6 1011.9 1011.8 0.0
05/07:30pm 16.9 14.9 10.3 65 3.5 WNW 11 11 6 6 1011.6 1011.5 0.0
05/07:00pm 16.5 13.9 9.4 63 3.7 W 13 17 7 9 1011.5 1011.4 0.0
05/06:30pm 16.9 14.2 8.8 59 4.2 W 13 15 7 8 1010.8 1010.8 0.0
05/06:00pm 21.2 17.7 7.4 41 7.1 NW 15 17 8 9 1010.2 1010.2 0.0
05/05:30pm 22.7 18.8 7.3 37 8.0 NW 17 22 9 12 1010.1 1010.1 0.0
05/05:00pm 24.2 18.5 6.9 33 9.0 NW 26 35 14 19 1010.3 1010.3 0.0
05/04:30pm 25.1 19.2 7.3 32 9.4 NW 28 39 15 21 1010.2 1010.2 0.0
05/04:00pm 25.5 18.2 7.1 31 9.7 NW 35 46 19 25 1010.2 1010.2 0.0
05/03:30pm 25.9 18.7 7.5 31 9.8 NW 35 50 19 27 1010.0 1010.0 0.0
05/03:00pm 25.9 19.2 8.0 32 9.6 NW 33 46 18 25 1010.0 1010.0 0.0
05/02:30pm 25.6 17.8 8.1 33 9.4 NW 39 52 21 28 1010.2 1010.2 0.0
05/02:00pm 25.4 18.8 8.4 34 9.2 NW 33 46 18 25 1010.5 1010.5 0.0
05/01:30pm 25.3 18.7 10.0 38 8.5 NW 35 48 19 26 1010.6 1010.6 0.0
05/01:00pm 24.8 17.8 9.9 39 8.2 NW 37 48 20 26 1011.0 1010.9 0.0
05/12:30pm 24.7 18.6 10.6 41 7.9 NNW 33 46 18 25 1011.5 1011.4 0.0
05/12:00pm 23.6 17.7 11.0 45 7.0 NNW 33 46 18 25 1012.2 1012.1 0.0
05/11:30am 23.0 17.4 11.4 48 6.5 NNW 32 44 17 24 1012.5 1012.4 0.0
05/11:00am 22.3 16.8 12.0 52 5.8 NNW 32 41 17 22 1013.0 1012.9 0.0
05/10:30am 20.7 14.9 11.6 56 5.1 NNW 33 44 18 24 1013.4 1013.3 0.0
05/10:00am 19.7 14.7 12.2 62 4.2 NNW 30 43 16 23 1013.6 1013.5 0.0
05/09:30am 17.8 13.0 11.8 68 3.3 NNW 28 39 15 21 1013.8 1013.7 0.0
05/09:00am 16.2 11.8 11.8 75 2.4 N 26 35 14 19 1013.7 1013.6 0.0
05/08:30am 14.9 11.1 11.1 78 2.0 N 22 32 12 17 1013.6 1013.5 0.0
05/08:00am 13.7 9.4 10.9 83 1.5 N 24 30 13 16 1013.4 1013.3 0.0
05/07:30am 12.8 9.1 10.3 85 1.3 N 20 26 11 14 1013.4 1013.3 0.0
05/07:00am 11.1 9.1 10.0 93 0.6 NNE 11 15 6 8 1013.4 1013.3 0.0
05/06:30am 11.5 8.4 10.4 93 0.6 NE 17 20 9 11 1013.4 1013.3 0.0
05/06:00am 11.2 8.9 10.6 96 0.3 NNE 13 15 7 8 1013.5 1013.4 0.0
05/05:30am 10.9 8.9 10.1 95 0.4 NNE 11 15 6 8 1013.6 1013.5 0.0
05/05:00am 11.3 9.1 10.7 96 0.3 NNE 13 15 7 8 1013.5 1013.4 0.0
05/04:30am 11.1 8.8 10.5 96 0.3 NNE 13 15 7 8 1013.4 1013.3 0.0
05/04:00am 11.7 8.8 11.1 96 0.3 N 17 20 9 11 1013.4 1013.3 0.0
05/03:30am 11.5 9.4 11.0 97 0.3 N 13 17 7 9 1013.4 1013.3 0.0
05/03:00am 11.9 9.5 11.4 97 0.3 N 15 20 8 11 1013.6 1013.5 0.0
05/02:30am 12.1 9.8 11.9 99 0.1 NNE 15 20 8 11 1014.0 1013.9 0.0
05/02:00am 12.1 10.6 11.9 99 0.1 NNE 11 15 6 8 1014.2 1014.1 0.0
05/01:30am 12.4 11.0 12.2 99 0.1 NNE 11 13 6 7 1014.4 1014.3 0.0
05/01:00am 13.5 12.4 13.0 97 0.3 N 11 13 6 7 1014.7 1014.6 0.0
05/12:30am 14.1 13.3 12.8 92 0.7 NNW 9 11 5 6 1015.0 1014.9 0.0
05/12:00am 15.2 13.5 13.6 90 0.9 NNW 15 20 8 11 1015.2 1015.1 0.0
 
Date/Time
CST
Temp
°C
App
Temp
°C
Dew
Point
Rel
Hum
%
Delta-T
°C
Wind Press
QNH
hPa
Press
MSL
hPa
Rain
since 9 am
mm
Dir
 
Spd
km/h
Gust
km/h
Spd
kts
Gust
kts
04/11:30pm 15.2 14.3 13.7 91 0.8 NNW 11 13 6 7 1015.2 1015.1 0.0
04/11:00pm 15.3 14.0 13.8 91 0.8 NNW 13 19 7 10 1015.5 1015.4 0.0
04/10:30pm 15.2 12.7 14.1 93 0.6 NNW 20 26 11 14 1015.4 1015.3 0.0
04/10:00pm 15.6 13.1 13.6 88 1.1 NNW 19 26 10 14 1015.8 1015.7 0.0
04/09:30pm 15.4 12.8 13.8 90 0.9 NNW 20 26 11 14 1015.8 1015.7 0.0
04/09:00pm 15.3 13.0 14.0 92 0.7 NNW 19 22 10 12 1015.8 1015.7 0.0
04/08:30pm 15.1 13.0 13.6 91 0.8 NNW 17 20 9 11 1015.8 1015.7 0.0
04/08:00pm 15.1 13.4 13.5 90 0.9 NNW 15 20 8 11 1015.7 1015.6 0.0
04/07:30pm 15.7 13.5 13.2 85 1.4 NW 17 20 9 11 1015.4 1015.3 0.0
04/07:00pm 15.9 13.4 13.6 86 1.3 NW 19 28 10 15 1015.5 1015.4 0.0
04/06:30pm 15.6 13.1 13.6 88 1.1 NW 19 26 10 14 1015.4 1015.3 0.0
04/06:00pm 16.2 12.4 13.5 84 1.5 NW 26 35 14 19 1015.2 1015.1 0.0
04/05:30pm 16.6 13.8 13.1 80 2.0 NW 20 32 11 17 1015.1 1015.0 0.0
04/05:00pm 17.3 13.7 13.0 76 2.4 NW 24 35 13 19 1014.9 1014.8 0.0
04/04:30pm 16.9 13.5 13.6 81 1.9 WNW 24 33 13 18 1014.8 1014.7 0.0
04/04:00pm 17.9 13.2 11.9 68 3.3 WNW 28 37 15 20 1014.8 1014.7 0.0
04/03:30pm 18.8 14.3 11.4 62 4.1 NW 26 37 14 20 1014.7 1014.6 0.0
04/03:00pm 18.7 15.1 12.9 69 3.3 WNW 24 33 13 18 1014.8 1014.7 0.0
04/02:30pm 18.3 14.0 12.1 67 3.4 NW 26 35 14 19 1014.8 1014.7 0.0
04/02:00pm 18.6 13.9 11.9 65 3.7 NW 28 39 15 21 1015.1 1015.0 0.0
04/01:30pm 17.7 14.2 12.2 70 3.0 WNW 22 30 12 16 1015.3 1015.2 0.0
04/01:00pm 18.3 14.1 11.1 63 3.9 WNW 24 32 13 17 1015.7 1015.6 0.0
04/12:30pm 18.7 14.7 11.8 64 3.8 NW 24 32 13 17 1016.1 1016.0 0.0
04/12:00pm 17.1 14.5 13.8 81 1.9 NW 20 28 11 15 1016.5 1016.4 0.0
04/11:30am 16.9 15.1 14.5 86 1.4 NNW 17 24 9 13 1016.8 1016.7 0.0
04/11:00am 15.8 12.9 12.4 80 1.9 NW 19 24 10 13 1017.0 1016.9 0.0
04/10:30am 15.8 13.5 14.0 89 1.0 NNW 19 24 10 13 1017.1 1017.0 0.0

Other Formats:

Comma delimited format used in spreadsheet applications
http://www.bom.gov.au/fwo/IDS60801/IDS60801.95663.axf

JavaScript Object Notation format (JSON) in row-major order
http://www.bom.gov.au/fwo/IDS60801/IDS60801.95663.json